Terminal Aerodrome Forecast
Issued by NWS Los Angeles, CA

Home | Current Version | Previous Version | Text Only | Print | Product List | Glossary On
Versions: 1 2 3 4 5 6 7 8 9 10 11 12 13 14 15 16 17 18 19 20 21 22 23 24 25 26 27 28 29
828
FTUS46 KLOX 271306 AAA
TAFSMX
TAF AMD
KSMX 271306Z 2713/2812 VRB03KT 2SM BR OVC007
     FM271600 VRB03KT P6SM OVC012
     FM271800 30008KT P6SM SKC
     FM272100 30015KT P6SM SKC
     FM280300 30008KT P6SM BKN010
     FM280900 VRB03KT P6SM OVC008=

USA.gov is the U.S. government's official web portal to all federal, state and local government web resources and services.